Murray, Idaho
Current Conditions -  °F | °C
As of 2:53 PM on Saturday 25 Oct 2014 (Local Time) from KMLP Reporting Station
Overcast Overcast  
Wind Chill: 39°   Ceiling: 10000
Heat Index: 43°   Visibility: 10mi
Dew Point: 39°   Wind: 7mph
Humidity: 86%   Direction: NA
Pressure: 29.72"   Gusts: NA
Location:  47.63°N, 115.86°W
Report Text: KMLP 252153Z AUTO VRB06KT 10SM OVC100 06/04 A2972 RMK AO2 SLP013 T00610039
Loading
Personal Weather Stations






























Interactive Weather Map
Tropical Storm Tracking
New forecast layout! Learn more

10-Day Weather Forecast

Advertisements
Track Severe Weather on mobile